TimePST,TemperatureF,Dew PointF,Humidity,Sea Level PressureIn,VisibilityMPH,Wind Direction,Wind SpeedMPH,Gust SpeedMPH,PrecipitationIn,Events,Conditions,WindDirDegrees,DateUTC
12:53 AM,68.0,41.0,37,30.08,10.0,Calm,Calm,-,N/A,,Clear,0,2013-01-09 08:53:00
1:53 AM,68.0,39.9,36,30.09,10.0,SSW,9.2,-,N/A,,Clear,210,2013-01-09 09:53:00
2:53 AM,69.1,36.0,30,30.09,10.0,SW,5.8,-,N/A,,Clear,220,2013-01-09 10:53:00
3:53 AM,69.1,37.9,32,30.07,10.0,SW,8.1,-,N/A,,Clear,230,2013-01-09 11:53:00
4:53 AM,66.9,41.0,39,30.06,10.0,WSW,5.8,-,N/A,,Clear,240,2013-01-09 12:53:00
5:53 AM,53.1,39.6,60,30.08,7.0,SE,5.8,-,N/A,,Mostly Cloudy,140,2013-01-09 13:53:00
6:53 AM,62.1,45.0,53,30.09,7.0,Calm,Calm,-,N/A,,Mostly Cloudy,0,2013-01-09 14:53:00
7:35 AM,55.4,42.8,63,30.10,6.0,Calm,Calm,-,N/A,,Haze,0,2013-01-09 15:35:00
7:53 AM,55.2,43.0,63,30.10,6.0,Calm,Calm,-,N/A,,Haze,0,2013-01-09 15:53:00
8:53 AM,59.7,50.0,70,30.10,6.0,Calm,Calm,-,N/A,,Haze,0,2013-01-09 16:53:00
9:53 AM,61.9,50.0,65,30.12,6.0,Calm,Calm,-,N/A,,Haze,0,2013-01-09 17:53:00
10:53 AM,61.7,53.1,73,30.11,6.0,East,3.5,-,N/A,,Haze,90,2013-01-09 18:53:00
11:53 AM,60.6,52.0,73,30.08,6.0,NE,6.9,-,N/A,,Haze,40,2013-01-09 19:53:00
12:53 PM,59.7,52.0,76,30.06,7.0,NNW,3.5,-,N/A,,Overcast,340,2013-01-09 20:53:00
1:39 PM,59.0,51.8,77,30.06,7.0,WSW,8.1,-,N/A,,Overcast,250,2013-01-09 21:39:00
1:53 PM,59.7,52.0,76,30.04,7.0,WSW,8.1,-,N/A,,Overcast,240,2013-01-09 21:53:00
2:00 PM,73.4,51.8,47,30.06,10.0,SW,9.2,-,N/A,,Mostly Cloudy,230,2013-01-09 22:00:00
2:26 PM,59.0,50.0,72,30.06,7.0,WSW,8.1,-,N/A,,Overcast,250,2013-01-09 22:26:00
2:53 PM,57.9,48.9,72,30.05,7.0,WSW,6.9,-,N/A,,Overcast,240,2013-01-09 22:53:00
3:53 PM,57.7,48.9,72,30.04,7.0,WSW,8.1,-,N/A,,Overcast,250,2013-01-09 23:53:00
4:53 PM,69.1,48.0,47,30.04,10.0,West,9.2,-,N/A,,Overcast,270,2013-01-10 00:53:00
5:53 PM,68.0,48.0,49,30.03,10.0,West,9.2,-,N/A,,Overcast,270,2013-01-10 01:53:00
6:32 PM,69.8,48.2,46,30.05,10.0,West,10.4,-,N/A,,Overcast,260,2013-01-10 02:32:00
6:53 PM,69.1,48.9,49,30.04,10.0,West,10.4,-,N/A,,Overcast,280,2013-01-10 02:53:00
7:06 PM,69.8,48.2,46,30.05,10.0,West,8.1,-,N/A,,Overcast,280,2013-01-10 03:06:00
7:53 PM,66.0,48.0,52,30.03,10.0,West,3.5,-,N/A,,Overcast,260,2013-01-10 03:53:00
8:53 PM,68.0,48.0,49,30.02,10.0,West,8.1,-,N/A,,Overcast,280,2013-01-10 04:53:00
9:53 PM,68.0,48.9,50,30.02,10.0,WNW,11.5,-,N/A,,Overcast,290,2013-01-10 05:53:00
10:53 PM,66.0,48.0,52,30.02,10.0,WNW,12.7,-,N/A,,Overcast,290,2013-01-10 06:53:00
11:37 PM,64.4,48.2,56,30.03,10.0,WNW,18.4,21.9,0.00,Rain,Light Rain,290,2013-01-10 07:37:00
11:53 PM,61.0,48.0,62,30.02,8.0,WNW,13.8,23.0,0.00,,Overcast,290,2013-01-10 07:53:00